createdAt,value
2024-05-09T00:01:57.069Z,60.87
2024-05-09T00:06:58.763Z,59.59
2024-05-09T00:12:00.577Z,59.84
2024-05-09T00:17:02.574Z,60.77
2024-05-09T00:22:04.394Z,61.35
2024-05-09T00:27:06.067Z,61.74
2024-05-09T00:32:08.114Z,62.07
2024-05-09T00:37:09.844Z,63.61
2024-05-09T00:42:11.550Z,65.00
2024-05-09T00:47:13.406Z,66.16
2024-05-09T00:52:15.332Z,66.25
2024-05-09T00:57:17.513Z,66.10
2024-05-09T01:02:20.640Z,66.37
2024-05-09T01:07:22.395Z,66.16
2024-05-09T01:12:24.865Z,65.98
2024-05-09T01:17:27.250Z,64.98
2024-05-09T01:22:30.946Z,66.20
2024-05-09T01:27:32.591Z,66.29
2024-05-09T01:32:34.419Z,66.07
2024-05-09T01:37:36.318Z,66.33
2024-05-09T01:42:38.097Z,66.31
2024-05-09T01:47:39.863Z,66.03
2024-05-09T01:52:41.679Z,66.22
2024-05-09T01:57:43.354Z,65.85
2024-05-09T02:02:45.638Z,64.95
2024-05-09T02:07:47.499Z,66.16
2024-05-09T02:12:49.197Z,66.53
2024-05-09T02:17:51.543Z,67.53
2024-05-09T02:22:53.549Z,67.76
2024-05-09T02:27:55.296Z,66.95
2024-05-09T02:32:57.162Z,67.87
2024-05-09T02:37:58.942Z,68.52
2024-05-09T02:43:00.749Z,68.64
2024-05-09T02:48:02.980Z,68.79
2024-05-09T02:53:05.092Z,67.37
2024-05-09T02:58:07.728Z,68.41
2024-05-09T03:03:13.075Z,67.91
2024-05-09T03:08:16.782Z,68.53
2024-05-09T03:13:18.490Z,68.40
2024-05-09T03:18:20.245Z,68.86
2024-05-09T03:23:22.065Z,68.73
2024-05-09T03:28:23.864Z,67.47
2024-05-09T03:33:25.965Z,67.49
2024-05-09T03:38:28.081Z,68.62
2024-05-09T03:43:29.837Z,68.39
2024-05-09T03:48:35.360Z,68.22
2024-05-09T03:53:37.210Z,68.06
2024-05-09T03:58:39.314Z,68.00
2024-05-09T04:03:41.221Z,67.83
2024-05-09T04:08:43.081Z,67.75
2024-05-09T04:13:44.931Z,67.62
2024-05-09T04:18:46.860Z,67.43
2024-05-09T04:23:48.823Z,66.99
2024-05-09T04:28:50.686Z,67.01
2024-05-09T04:33:52.429Z,66.80
2024-05-09T04:38:54.236Z,66.59
2024-05-09T04:43:55.934Z,65.28
2024-05-09T04:48:57.813Z,64.74
2024-05-09T04:53:59.531Z,64.86
2024-05-09T04:59:01.368Z,64.25
2024-05-09T05:04:03.180Z,64.78
2024-05-09T05:09:05.076Z,63.86
2024-05-09T05:14:06.801Z,63.58
2024-05-09T05:19:12.687Z,62.87
2024-05-09T05:24:15.928Z,62.48
2024-05-09T05:29:20.189Z,62.18
2024-05-09T05:34:22.499Z,61.56
2024-05-09T05:39:24.231Z,60.92
2024-05-09T05:44:25.930Z,61.17
2024-05-09T05:49:27.774Z,60.11
2024-05-09T05:54:29.558Z,58.70
2024-05-09T05:59:31.328Z,59.80
2024-05-09T06:04:33.204Z,60.09
2024-05-09T06:09:35.000Z,61.08
2024-05-09T06:14:36.713Z,61.35
2024-05-09T06:19:38.488Z,61.30
2024-05-09T06:24:40.196Z,61.63
2024-05-09T06:29:41.919Z,62.26
2024-05-09T06:34:43.885Z,61.96
2024-05-09T06:39:46.455Z,60.54
2024-05-09T06:44:48.154Z,58.35
2024-05-09T06:49:49.874Z,58.80
2024-05-09T06:54:51.555Z,59.47
2024-05-09T06:59:53.320Z,59.32
2024-05-09T07:04:55.175Z,58.80
2024-05-09T07:09:57.003Z,58.94
2024-05-09T07:14:58.714Z,58.17
2024-05-09T07:20:00.425Z,59.21
2024-05-09T07:25:02.611Z,59.51
2024-05-09T07:30:07.093Z,59.42
2024-05-09T07:35:08.937Z,59.22
2024-05-09T07:40:17.675Z,59.59
2024-05-09T07:45:43.322Z,59.34
2024-05-09T07:55:53.162Z,57.94
2024-05-09T08:00:55.216Z,56.39
2024-05-09T08:05:57.159Z,56.83
2024-05-09T08:10:58.803Z,55.05
2024-05-09T08:16:00.859Z,55.41
2024-05-09T08:21:03.149Z,54.03
2024-05-09T08:26:05.400Z,53.95
2024-05-09T08:31:07.544Z,52.87
2024-05-09T08:36:09.647Z,52.55
2024-05-09T08:41:13.892Z,52.85
2024-05-09T08:46:18.442Z,52.27
2024-05-09T08:51:20.226Z,52.80
2024-05-09T08:56:28.217Z,51.59
2024-05-09T09:01:32.018Z,51.14
2024-05-09T09:06:35.210Z,50.59
2024-05-09T09:11:37.083Z,49.87
2024-05-09T09:16:38.818Z,50.02
2024-05-09T09:21:40.535Z,49.11
2024-05-09T09:26:44.978Z,48.41
2024-05-09T09:31:57.063Z,47.13
2024-05-09T09:37:04.527Z,45.46
2024-05-09T09:42:06.386Z,45.15
2024-05-09T09:47:09.342Z,44.08
2024-05-09T09:52:13.389Z,45.24
2024-05-09T09:57:16.081Z,44.50
2024-05-09T10:02:17.924Z,45.04
2024-05-09T10:07:21.419Z,44.64
2024-05-09T10:12:23.898Z,44.38
2024-05-09T10:17:25.764Z,42.96
2024-05-09T10:22:28.483Z,43.44
2024-05-09T10:27:30.926Z,42.81
2024-05-09T10:32:40.705Z,42.17
2024-05-09T10:37:42.860Z,41.45
2024-05-09T10:42:44.769Z,41.63
2024-05-09T10:47:46.668Z,41.96
2024-05-09T10:52:48.461Z,41.75
2024-05-09T10:57:50.149Z,41.70
2024-05-09T11:02:51.984Z,41.09
2024-05-09T11:07:53.912Z,40.61
2024-05-09T11:12:55.688Z,40.24
2024-05-09T11:17:57.522Z,40.29
2024-05-09T11:22:59.298Z,40.70
2024-05-09T11:28:02.157Z,40.66
2024-05-09T11:33:04.203Z,40.46
2024-05-09T11:38:05.896Z,40.06
2024-05-09T11:43:07.765Z,39.60
2024-05-09T11:48:09.672Z,38.51
2024-05-09T11:53:12.304Z,38.61
2024-05-09T11:58:16.932Z,37.90
2024-05-09T12:03:18.929Z,38.86
2024-05-09T12:08:20.736Z,37.98
2024-05-09T12:13:22.478Z,38.65
2024-05-09T12:18:24.531Z,38.20
2024-05-09T12:23:26.306Z,38.07
2024-05-09T12:28:27.997Z,37.09
2024-05-09T12:33:29.830Z,36.94
2024-05-09T12:38:31.642Z,36.99
2024-05-09T12:43:33.421Z,36.09
2024-05-09T12:48:35.439Z,36.74
2024-05-09T12:53:37.454Z,36.38
2024-05-09T12:58:39.226Z,36.25
2024-05-09T13:03:41.057Z,36.35
2024-05-09T13:08:43.059Z,35.94
2024-05-09T13:13:44.804Z,35.52
2024-05-09T13:18:46.529Z,35.47
2024-05-09T13:23:48.365Z,35.26
2024-05-09T13:28:49.988Z,35.58
2024-05-09T13:33:51.978Z,34.90
2024-05-09T13:38:54.486Z,34.18
2024-05-09T13:43:56.418Z,33.64
2024-05-09T13:48:58.351Z,32.96
2024-05-09T13:54:00.028Z,33.21
2024-05-09T13:59:01.750Z,33.47
2024-05-09T14:04:03.720Z,34.34
2024-05-09T14:09:05.531Z,34.44
2024-05-09T14:14:07.220Z,34.77
2024-05-09T14:19:09.417Z,34.63
2024-05-09T14:24:11.147Z,34.80
2024-05-09T14:29:12.838Z,35.73
2024-05-09T14:34:14.760Z,35.97
2024-05-09T14:39:16.671Z,36.14
2024-05-09T14:44:18.373Z,36.58
2024-05-09T14:49:20.264Z,36.64
2024-05-09T14:54:22.110Z,37.09
2024-05-09T14:59:23.823Z,36.69
2024-05-09T15:04:27.549Z,36.51
2024-05-09T15:09:35.327Z,36.76
2024-05-09T15:14:37.605Z,37.03
2024-05-09T15:19:39.519Z,36.17
2024-05-09T15:24:42.198Z,36.77
2024-05-09T15:29:44.015Z,37.78
2024-05-09T15:34:45.975Z,38.59
2024-05-09T15:39:48.172Z,38.49
2024-05-09T15:44:52.802Z,38.98
2024-05-09T15:49:54.804Z,38.37
2024-05-09T15:54:56.714Z,38.40
2024-05-09T15:59:58.667Z,38.43
2024-05-09T16:05:00.893Z,38.35
2024-05-09T16:10:04.156Z,38.58
2024-05-09T16:15:07.523Z,38.60
2024-05-09T16:20:14.981Z,38.01
2024-05-09T16:25:19.862Z,38.76
2024-05-09T16:30:28.270Z,38.48
2024-05-09T16:35:36.879Z,38.38
2024-05-09T16:40:40.879Z,38.81
2024-05-09T16:45:44.686Z,38.54
2024-05-09T16:50:46.709Z,39.12
2024-05-09T16:55:48.599Z,39.39
2024-05-09T17:00:50.728Z,39.64
2024-05-09T17:05:52.921Z,39.77
2024-05-09T17:10:55.395Z,40.59
2024-05-09T17:15:57.296Z,41.28
2024-05-09T17:20:58.951Z,41.56
2024-05-09T17:26:00.758Z,42.07
2024-05-09T17:31:02.455Z,42.59
2024-05-09T17:36:04.460Z,43.10
2024-05-09T17:41:06.197Z,43.55
2024-05-09T17:46:08.104Z,44.42
2024-05-09T17:51:09.929Z,44.90
2024-05-09T17:56:11.741Z,45.87
2024-05-09T18:01:13.814Z,46.34
2024-05-09T18:06:16.495Z,46.96
2024-05-09T18:11:18.414Z,47.28
2024-05-09T18:16:20.724Z,48.43
2024-05-09T18:21:22.511Z,49.08
2024-05-09T18:26:24.178Z,49.73
2024-05-09T18:31:25.947Z,49.81
2024-05-09T18:36:28.116Z,50.44
2024-05-09T18:41:29.751Z,51.13
2024-05-09T18:46:31.848Z,50.63
2024-05-09T18:51:33.633Z,52.05
2024-05-09T18:56:37.316Z,53.16
2024-05-09T19:01:41.866Z,53.65
2024-05-09T19:06:45.315Z,53.61
2024-05-09T19:11:49.641Z,53.82
2024-05-09T19:16:51.408Z,53.57
2024-05-09T19:21:53.669Z,54.05
2024-05-09T19:26:56.322Z,55.13
2024-05-09T19:31:58.073Z,55.69
2024-05-09T19:37:01.284Z,55.61
2024-05-09T19:42:03.199Z,55.19
2024-05-09T19:47:05.013Z,55.37
2024-05-09T19:52:06.711Z,56.60
2024-05-09T19:57:08.451Z,57.09
2024-05-09T20:02:10.309Z,57.06
2024-05-09T20:07:12.781Z,56.65
2024-05-09T20:12:14.674Z,56.90
2024-05-09T20:17:16.444Z,57.57
2024-05-09T20:22:18.337Z,56.94
2024-05-09T20:27:20.095Z,57.95
2024-05-09T20:32:22.062Z,58.26
2024-05-09T20:37:24.606Z,57.87
2024-05-09T20:42:26.366Z,58.26
2024-05-09T20:47:28.265Z,58.97
2024-05-09T20:52:30.144Z,59.08
2024-05-09T20:57:32.174Z,59.25
2024-05-09T21:02:37.898Z,61.26
2024-05-09T21:07:39.967Z,61.26
2024-05-09T21:12:41.788Z,61.70
2024-05-09T21:17:43.679Z,62.56
2024-05-09T21:22:46.443Z,62.21
2024-05-09T21:27:48.712Z,62.09
2024-05-09T21:32:50.667Z,61.43
2024-05-09T21:37:52.333Z,61.61
2024-05-09T21:42:55.101Z,60.68
2024-05-09T21:47:57.226Z,60.84
2024-05-09T21:52:59.093Z,62.77
2024-05-09T21:58:00.995Z,63.19
2024-05-09T22:03:02.882Z,62.33
2024-05-09T22:08:05.002Z,62.27
2024-05-09T22:13:08.334Z,61.12
2024-05-09T22:18:11.314Z,61.05
2024-05-09T22:23:15.432Z,60.85
2024-05-09T22:28:17.375Z,60.48
2024-05-09T22:33:19.308Z,58.65
2024-05-09T22:38:21.019Z,59.19
2024-05-09T22:43:24.649Z,60.33
2024-05-09T22:48:27.114Z,61.16
2024-05-09T22:53:28.853Z,61.79
2024-05-09T22:58:30.900Z,61.88
2024-05-09T23:03:32.921Z,62.26
2024-05-09T23:08:34.849Z,64.25
2024-05-09T23:13:36.898Z,64.41
2024-05-09T23:18:38.786Z,64.43
2024-05-09T23:23:42.000Z,64.01
2024-05-09T23:28:43.688Z,63.75
2024-05-09T23:33:46.860Z,63.45
2024-05-09T23:38:49.081Z,63.53
2024-05-09T23:43:52.470Z,64.21
2024-05-09T23:48:54.277Z,64.41
2024-05-09T23:53:56.018Z,63.70
2024-05-09T23:58:57.643Z,63.63
